Vliegveldwaarnemingen Nederland - (AUTO) METAR

Luchtvaartmeteorologische informatie voor operationeel gebruik en vluchtvoorbereiding is beschikbaar op www.luchtvaartmeteo.nl.

ZCZC
SA120255 EHKD     DE KOOY/DE KOOY   NLD   1 m.
METAR EHKD 120255Z AUTO 26015KT 230V290 9999 -RA FEW017 SCT021 BKN029
06/03 Q0999 WHT=

ZCZC
SA120255 EHFD     F3-FB-1   NLD   50 m.
METAR EHFD 120255Z AUTO ///19KT 9999 FEW014/// SCT018/// BKN030///
07/03 Q0995=

ZCZC
SA120255 EHAM     AMSTERDAM/SCHIPHOL   NLD   -3 m.
METAR EHAM 120255Z 21010KT 9999 VCSH FEW020 SCT043 05/04 Q1000 BECMG
26010KT=

ZCZC
SA120255 EHVL     VLIELAND   NLD   10 m.
METAR EHVL 120255Z AUTO 25014KT 9999 FEW015CB SCT034 06/04 Q0998 BLU=

ZCZC
SA120255 EHJR     K13-A   NLD   37 m.
METAR EHJR 120255Z AUTO 26018KT //// // ///////// 07/03 Q0999 RE//
W10/H15=

ZCZC
SA120255 EHLE     LELYSTAD/LELYSTAD   NLD   -3 m.
METAR EHLE 120255Z AUTO 20010KT 170V230 9000 // FEW009 BKN010
FEW015CB 05/04 Q1000 RE//=

ZCZC
SA120255 EHLW     LEEUWARDEN/LEEUWARDEN   NLD   1 m.
METAR EHLW 120255Z AUTO 20010KT 160V220 6000 BR FEW006 SCT010 OVC024
05/05 Q0999 GRN=

ZCZC
SA120255 EHDL     ARNHEM/DEELEN   NLD   48 m.
METAR EHDL 120255Z AUTO 21009KT 160V260 9999 SCT007 BKN008 OVC010
05/04 Q1001 GRN=

ZCZC
SA120255 EHGG     GRONINGEN/EELDE   NLD   5 m.
METAR EHGG 120255Z AUTO 19008KT 140V210 8000 SCT014 SCT017 OVC033
05/04 Q0999=

ZCZC
SA120255 EHSC     LICHTEILAND GOEREE   NLD   22 m.
METAR EHSC 120255Z AUTO 28019KT 9999 ///////// 07/03 Q1001 W09/H12=

ZCZC
SA120255 EHSA     EURO PLATFORM   NLD   19 m.
METAR EHSA 120255Z AUTO 26017KT 9999 ///////// 07/03 Q1001 W08/H12=

ZCZC
SA120255 EHWO     WOENSDRECHT/WOENSDRECHT   NLD   19 m.
METAR EHWO 120255Z AUTO 22006KT 9999 FEW015CB BKN034 04/03 Q1002 REDZ
 BLU=

ZCZC
SA120255 EHRD     ROTTERDAM/THE HAGUE AIRPORT   NLD   -5 m.
METAR EHRD 120255Z AUTO 21010KT 180V240 9999 FEW018 SCT024 BKN028
06/04 Q1001 REDZ BECMG 26010KT=

ZCZC
SA120255 EHGR     GILZE-RIJEN/GILZE-RIJEN   NLD   14 m.
METAR EHGR 120255Z AUTO 22006KT 9999 BKN012 BKN016 BKN031 04/03 Q1002
 GRN=

ZCZC
SA120255 EHEH     EINDHOVEN/EINDHOVEN   NLD   22 m.
METAR EHEH 120255Z AUTO 21009KT 9999 FEW010 SCT013 BKN017 05/04 Q1002
 GRN=

ZCZC
SA120255 EHVK     VOLKEL/VOLKEL   NLD   21 m.
METAR EHVK 120255Z AUTO 21009KT 190V250 9999 FEW010 SCT012 BKN014
05/04 Q1002 GRN=

ZCZC
SA120255 EHBK     MAASTRICHT/MAASTRICHT-AACHEN   NLD   114 m.
METAR EHBK 120255Z AUTO 21008KT 9999 SCT011 OVC013 05/04 Q1002=

ZCZC
SA120255 EHFZ     F16-A   NLD   43 m.
METAR EHFZ 120255Z AUTO 24016KT 9999 DZ FEW016 SCT020 BKN037 06/03
Q0997=

ZCZC
SA120255 EHKV     K14-FA-1C   NLD   41 m.
METAR EHKV 120255Z AUTO 27020KT 9999 FEW019 SCT035 07/02 Q0999=

ZCZC
SA120255 EHMG     L9-FF-1   NLD   44 m.
METAR EHMG 120255Z AUTO 25015KT 9999 SCT015 SCT022 BKN036 08/04
Q0998=

ZCZC
SA120255 EHMA     AWG-1   NLD   40 m.
METAR EHMA 120255Z AUTO 21018KT 7000 FEW004 SCT006 BKN008 06/05
Q0998=

ZCZC
SA120255 EHDV     D15-FA-1   NLD   42 m.
METAR EHDV 120255Z AUTO 27017KT 220V330 9999 FEW021/// 07/01 Q0996=

ZCZC
SA120255 EHAK     A12-CPP   NLD   48 m.
METAR EHAK 120255Z AUTO 24016KT 190V280 9999 -RA FEW014/// SCT020///
BKN024/// 06/03 Q0995=

ZCZC
SA120255 EHQE     HOORN-A   NLD   50 m.
METAR EHQE 120255Z AUTO 25021KT 9999 FEW015 FEW020CB SCT024 BKN032
08/02 Q0999=

ZCZC
SA120255 EHJA     J6-A   NLD   45 m.
METAR EHJA 120255Z AUTO 25019KT 9999 FEW017/// SCT025/// 07/02 Q0997=

ZCZC
SA120255 EHPG     P11-B   NLD   41 m.
METAR EHPG 120255Z AUTO ///17KT 9999 SCT015 BKN022 07/02 Q1000=

ZCZC
SA120255 EHHW     BUITENGAATS/BG-OHVS2      42 m.
METAR EHHW 120255Z AUTO 21021KT 9999 SCT008/// BKN009/// BKN012///
07/05 Q0998=

ZCZC
SA120255 EHFS     VLISSINGEN AWS   NLD   8 m.
METAR EHFS 120255Z AUTO 24009KT 210V300 9999 FEW009/// BKN019///
OVC023/// 05/04 Q1002=

12/12/2019 04.15 uur LT